Time;durP1;ratioP1;P1;durP2;ratioP2;P2;SDS_P1;SDS_P2;PMS_P1;PMS_P2;Temp;Humidity;BMP_temperature;BMP_pressure;BME280_temperature;BME280_humidity;BME280_pressure;Samples;Min_cycle;Max_cycle;Signal;HPM_P1;HPM_P2
2022/08/01 00:00:13;;;;;;;12.13;11.02;;;18.10;99.90;;;;;;5027757;28;20094;-65
2022/08/01 00:02:39;;;;;;;11.93;10.82;;;18.10;99.90;;;;;;5027184;28;20105;-65
2022/08/01 00:05:06;;;;;;;11.57;10.52;;;18.10;99.90;;;;;;5009886;28;20029;-65
2022/08/01 00:07:33;;;;;;;10.70;9.45;;;18.20;99.90;;;;;;5028440;28;20056;-65
2022/08/01 00:09:58;;;;;;;13.57;12.20;;;18.20;99.90;;;;;;5028067;28;20046;-66
2022/08/01 00:12:24;;;;;;;12.25;11.00;;;18.10;99.90;;;;;;5027458;28;20060;-65
2022/08/01 00:14:49;;;;;;;12.23;11.13;;;18.10;99.90;;;;;;5009852;28;20038;-65
2022/08/01 00:17:15;;;;;;;11.23;10.13;;;18.10;99.90;;;;;;5028074;28;20037;-66
2022/08/01 00:19:41;;;;;;;10.98;9.88;;;18.10;99.90;;;;;;5027457;28;20108;-66
2022/08/01 00:22:06;;;;;;;10.02;9.15;;;18.10;99.90;;;;;;5007560;28;20060;-67
2022/08/01 00:24:33;;;;;;;10.27;9.23;;;18.10;99.90;;;;;;5027992;28;20017;-66
2022/08/01 00:26:58;;;;;;;9.93;8.93;;;18.10;99.90;;;;;;5026384;28;20061;-65
2022/08/01 00:29:24;;;;;;;11.20;10.20;;;18.10;99.90;;;;;;5009536;28;20041;-66
2022/08/01 00:31:49;;;;;;;11.27;10.20;;;18.10;99.90;;;;;;5026853;28;20032;-66
2022/08/01 00:34:15;;;;;;;14.05;10.85;;;18.10;99.90;;;;;;5010153;28;20013;-65
2022/08/01 00:36:40;;;;;;;10.18;9.20;;;18.10;99.90;;;;;;5009280;28;20078;-65
2022/08/01 00:39:06;;;;;;;10.85;9.82;;;18.10;99.90;;;;;;5027564;28;20408;-65
2022/08/01 00:41:32;;;;;;;13.73;11.82;;;18.10;99.90;;;;;;5009353;28;20270;-66
2022/08/01 00:43:57;;;;;;;11.50;9.77;;;18.10;99.90;;;;;;5009525;28;20369;-66
2022/08/01 00:46:23;;;;;;;11.88;10.57;;;18.10;99.90;;;;;;5010100;28;20203;-65
2022/08/01 00:48:48;;;;;;;10.93;9.93;;;18.10;99.90;;;;;;5026304;28;20029;-66
2022/08/01 00:51:15;;;;;;;12.88;11.00;;;18.10;99.90;;;;;;5025885;28;20033;-66
2022/08/01 00:53:41;;;;;;;12.90;10.57;;;18.10;99.90;;;;;;5005784;28;20562;-66
2022/08/01 00:56:07;;;;;;;12.88;11.55;;;18.10;99.90;;;;;;5011938;28;20061;-66
2022/08/01 00:58:33;;;;;;;14.32;12.05;;;18.10;99.90;;;;;;5028672;28;20030;-66
2022/08/01 01:00:59;;;;;;;12.75;10.95;;;18.10;99.90;;;;;;5027780;28;20420;-67
2022/08/01 01:03:26;;;;;;;11.52;10.27;;;18.10;99.90;;;;;;5027821;28;20332;-66
2022/08/01 01:05:58;;;;;;;18.33;12.10;;;18.00;99.90;;;;;;5012785;28;20021;-65
2022/08/01 01:08:30;;;;;;;12.52;10.90;;;18.00;99.90;;;;;;5028199;28;20668;-66
2022/08/01 01:11:03;;;;;;;12.60;10.40;;;18.00;99.90;;;;;;5030961;28;20025;-65
2022/08/01 01:13:37;;;;;;;14.63;10.30;;;18.00;99.90;;;;;;5011577;28;20822;-65
2022/08/01 01:16:13;;;;;;;10.48;9.38;;;18.10;99.90;;;;;;5030406;28;20037;-65
2022/08/01 01:19:10;;;;;;;10.98;9.32;;;18.10;99.90;;;;;;5030837;28;20025;-66
2022/08/01 01:21:42;;;;;;;12.30;9.88;;;18.10;99.90;;;;;;4991330;28;20032;-65
2022/08/01 01:24:16;;;;;;;14.57;10.85;;;18.10;99.90;;;;;;5013475;28;20057;-66
2022/08/01 01:27:07;;;;;;;11.68;10.48;;;18.00;99.90;;;;;;5024952;28;20025;-65
2022/08/01 01:29:48;;;;;;;16.48;11.50;;;18.10;99.90;;;;;;5025695;28;20079;-66
2022/08/01 01:32:16;;;;;;;11.00;9.85;;;18.00;99.90;;;;;;5029877;28;20061;-64
2022/08/01 01:34:45;;;;;;;12.70;10.18;;;18.10;99.90;;;;;;5029857;28;20602;-65
2022/08/01 01:37:15;;;;;;;14.00;10.73;;;18.10;99.90;;;;;;5030632;28;20083;-65
2022/08/01 01:39:42;;;;;;;11.05;9.82;;;18.10;99.90;;;;;;5030624;28;20025;-65
2022/08/01 01:42:08;;;;;;;11.93;9.30;;;18.00;99.90;;;;;;5028165;28;20043;-65
2022/08/01 01:44:36;;;;;;;10.48;9.10;;;18.00;99.90;;;;;;5030428;28;20021;-66
2022/08/01 01:47:03;;;;;;;16.17;10.80;;;18.00;99.90;;;;;;5030536;28;20017;-65
2022/08/01 01:49:29;;;;;;;11.90;9.20;;;18.00;99.90;;;;;;5011886;28;20517;-65
2022/08/01 01:51:58;;;;;;;10.38;9.32;;;18.00;99.90;;;;;;5029916;28;20419;-65
2022/08/01 01:54:31;;;;;;;12.40;9.52;;;18.00;99.90;;;;;;5012771;28;20464;-66
2022/08/01 01:56:59;;;;;;;13.43;9.65;;;18.00;99.90;;;;;;5029788;28;20080;-64
2022/08/01 01:59:28;;;;;;;10.13;7.40;;;18.00;99.90;;;;;;5030490;28;20087;-65
2022/08/01 02:01:57;;;;;;;9.63;7.68;;;18.00;99.90;;;;;;5028980;28;20014;-65
2022/08/01 02:04:24;;;;;;;7.78;6.93;;;18.00;99.90;;;;;;5011557;28;20117;-65
2022/08/01 02:06:51;;;;;;;8.85;7.80;;;18.00;99.90;;;;;;5012459;28;20025;-64
2022/08/01 02:09:19;;;;;;;9.32;7.13;;;17.90;99.90;;;;;;5030038;28;20031;-65
2022/08/01 02:11:47;;;;;;;8.52;7.10;;;17.90;99.90;;;;;;5010990;28;20030;-65
2022/08/01 02:14:14;;;;;;;7.97;7.18;;;17.90;99.90;;;;;;5012349;28;20076;-65
2022/08/01 02:16:42;;;;;;;7.75;6.95;;;17.90;99.90;;;;;;5011459;28;20455;-64
2022/08/01 02:19:09;;;;;;;9.98;7.15;;;17.90;99.90;;;;;;5028127;28;20109;-65
2022/08/01 02:21:48;;;;;;;7.82;6.93;;;17.90;99.90;;;;;;5011623;28;20029;-65
2022/08/01 02:24:28;;;;;;;10.75;7.55;;;17.90;99.90;;;;;;5026887;28;20036;-65
2022/08/01 02:26:59;;;;;;;13.00;7.20;;;17.90;99.90;;;;;;5028503;28;20013;-65
2022/08/01 02:29:32;;;;;;;8.75;7.10;;;17.90;99.90;;;;;;5011977;28;20092;-67
2022/08/01 02:31:59;;;;;;;8.35;7.40;;;17.80;99.90;;;;;;5028456;28;20029;-64
2022/08/01 02:34:31;;;;;;;8.68;6.72;;;17.80;99.90;;;;;;5011444;28;20514;-65
2022/08/01 02:37:00;;;;;;;9.52;7.15;;;17.90;99.90;;;;;;5029839;28;20039;-65
2022/08/01 02:39:28;;;;;;;8.18;7.43;;;17.80;99.90;;;;;;5029556;28;20028;-64
2022/08/01 02:41:57;;;;;;;16.23;8.15;;;17.80;99.90;;;;;;5010204;28;20029;-64
2022/08/01 02:44:26;;;;;;;8.82;7.80;;;17.80;99.90;;;;;;5010770;28;20029;-64
2022/08/01 02:46:57;;;;;;;9.32;8.20;;;17.80;99.90;;;;;;5011734;28;20037;-65
2022/08/01 02:49:25;;;;;;;9.98;7.40;;;17.80;99.90;;;;;;5011364;28;20110;-62
2022/08/01 02:51:54;;;;;;;12.00;7.93;;;17.80;99.90;;;;;;5010901;28;20108;-65
2022/08/01 02:54:22;;;;;;;8.60;7.80;;;17.80;99.90;;;;;;5029241;28;20017;-65
2022/08/01 02:56:49;;;;;;;9.32;7.95;;;17.80;99.90;;;;;;5028690;28;20494;-64
2022/08/01 02:59:20;;;;;;;8.57;7.75;;;17.70;99.90;;;;;;5020835;28;20480;-64
2022/08/01 03:01:47;;;;;;;8.45;7.65;;;17.80;99.90;;;;;;5027628;28;20480;-65
2022/08/01 03:04:14;;;;;;;8.50;7.70;;;17.80;99.90;;;;;;5028563;28;20030;-65
2022/08/01 03:06:41;;;;;;;8.55;7.70;;;17.70;99.90;;;;;;5029312;28;20032;-65
2022/08/01 03:09:08;;;;;;;10.13;9.07;;;17.80;99.90;;;;;;5028805;28;20033;-65
2022/08/01 03:11:37;;;;;;;9.73;8.40;;;17.80;99.90;;;;;;5027833;28;20026;-65
2022/08/01 03:14:07;;;;;;;10.88;9.50;;;17.80;99.90;;;;;;5029108;28;20092;-65
2022/08/01 03:16:35;;;;;;;10.90;9.55;;;17.70;99.90;;;;;;5028061;28;20026;-65
2022/08/01 03:19:01;;;;;;;10.02;9.02;;;17.70;99.90;;;;;;5026801;28;20022;-64
2022/08/01 03:21:29;;;;;;;9.38;8.57;;;17.70;99.90;;;;;;5028558;28;20051;-65
2022/08/01 03:23:57;;;;;;;9.68;8.77;;;17.70;99.90;;;;;;5011067;28;20111;-64
2022/08/01 03:26:28;;;;;;;9.82;9.02;;;17.80;99.90;;;;;;5027990;28;20112;-65
2022/08/01 03:28:59;;;;;;;10.63;9.23;;;17.80;99.90;;;;;;5027579;28;20037;-66
2022/08/01 03:31:26;;;;;;;8.95;8.05;;;17.80;99.90;;;;;;5021071;28;20021;-65
2022/08/01 03:33:52;;;;;;;8.60;7.32;;;17.80;99.90;;;;;;5027973;28;20511;-66
2022/08/01 03:36:26;;;;;;;8.55;7.60;;;17.80;99.90;;;;;;5028706;28;20025;-65
2022/08/01 03:38:56;;;;;;;8.25;7.45;;;17.80;99.90;;;;;;5010506;28;20052;-66
2022/08/01 03:41:26;;;;;;;7.72;7.10;;;17.70;99.90;;;;;;5027206;28;20025;-64
2022/08/01 03:44:03;;;;;;;10.80;8.10;;;17.70;99.90;;;;;;5028711;28;20480;-65
2022/08/01 03:46:39;;;;;;;8.20;7.47;;;17.70;99.90;;;;;;5026613;28;20041;-64
2022/08/01 03:49:07;;;;;;;;;;;17.70;99.90;;;;;;5028572;28;20064;-65
2022/08/01 03:51:33;;;;;;;10.73;5.95;;;17.70;99.90;;;;;;5027749;28;20014;-64
2022/08/01 03:54:01;;;;;;;5.93;5.43;;;17.70;99.90;;;;;;5028366;28;20022;-64
2022/08/01 03:56:30;;;;;;;9.00;8.07;;;17.60;99.90;;;;;;5028271;28;20026;-64
2022/08/01 03:58:57;;;;;;;8.20;7.35;;;17.60;99.90;;;;;;5010359;28;20026;-65
2022/08/01 04:01:22;;;;;;;7.35;6.65;;;17.60;99.90;;;;;;5027020;28;20056;-65
2022/08/01 04:03:49;;;;;;;8.55;7.60;;;17.60;99.90;;;;;;5028011;28;20021;-65
2022/08/01 04:06:15;;;;;;;7.55;6.85;;;17.60;99.90;;;;;;5002507;28;20021;-64
2022/08/01 04:08:41;;;;;;;6.28;5.75;;;17.60;99.90;;;;;;5009777;28;20048;-65
2022/08/01 04:11:09;;;;;;;6.28;5.78;;;17.60;99.90;;;;;;5027466;28;20115;-65
2022/08/01 04:13:34;;;;;;;7.80;6.60;;;17.60;99.90;;;;;;5027564;28;20050;-65
2022/08/01 04:16:00;;;;;;;6.95;6.35;;;17.60;99.90;;;;;;5027602;28;20030;-65
2022/08/01 04:18:26;;;;;;;7.28;6.57;;;17.60;99.90;;;;;;5008273;28;20025;-65
2022/08/01 04:20:51;;;;;;;6.53;5.93;;;17.60;99.90;;;;;;5027481;28;20025;-65
2022/08/01 04:23:24;;;;;;;7.22;6.47;;;17.60;99.90;;;;;;5027021;28;20498;-65
2022/08/01 04:25:51;;;;;;;8.40;6.22;;;17.70;99.90;;;;;;5009272;28;20384;-65
2022/08/01 04:28:19;;;;;;;6.72;6.13;;;17.70;99.90;;;;;;5031886;28;20033;-65
2022/08/01 04:30:48;;;;;;;8.73;6.15;;;17.70;99.90;;;;;;5031968;28;20079;-65
2022/08/01 04:33:16;;;;;;;7.55;6.82;;;17.70;99.90;;;;;;5027796;28;20071;-65
2022/08/01 04:35:47;;;;;;;7.10;6.40;;;17.70;99.90;;;;;;5031344;28;20079;-66
2022/08/01 04:38:19;;;;;;;7.93;6.18;;;17.70;99.90;;;;;;5013803;28;20021;-66
2022/08/01 04:40:48;;;;;;;6.30;5.68;;;17.70;99.90;;;;;;5031253;28;20022;-65
2022/08/01 04:43:14;;;;;;;6.25;4.60;;;17.70;99.90;;;;;;5012675;28;20028;-66
2022/08/01 04:45:40;;;;;;;5.18;4.75;;;17.70;99.90;;;;;;5031420;28;20141;-65
2022/08/01 04:48:06;;;;;;;6.70;5.80;;;17.70;99.90;;;;;;5031184;28;20499;-64
2022/08/01 04:50:32;;;;;;;5.82;5.25;;;17.70;99.90;;;;;;5013574;28;20036;-63
2022/08/01 04:52:58;;;;;;;7.28;5.43;;;17.70;99.90;;;;;;5012849;28;20072;-65
2022/08/01 04:55:23;;;;;;;5.00;4.00;;;17.60;99.90;;;;;;5030994;28;20521;-65
2022/08/01 04:57:49;;;;;;;3.85;3.55;;;17.60;99.90;;;;;;5031141;28;20160;-64
2022/08/01 05:00:16;;;;;;;4.30;3.40;;;17.60;99.90;;;;;;5031373;28;20022;-63
2022/08/01 05:02:42;;;;;;;3.78;3.00;;;17.60;99.90;;;;;;5029576;28;20391;-64
2022/08/01 05:05:10;;;;;;;3.78;2.88;;;17.60;99.90;;;;;;5031144;28;20033;-64
2022/08/01 05:07:35;;;;;;;3.22;2.92;;;17.60;99.90;;;;;;5025899;28;20035;-65
2022/08/01 05:10:03;;;;;;;4.30;2.25;;;17.60;99.90;;;;;;5030804;28;20108;-65
2022/08/01 05:12:29;;;;;;;3.63;3.33;;;17.50;99.90;;;;;;5030692;28;20455;-63
2022/08/01 05:14:54;;;;;;;2.35;2.15;;;17.50;99.90;;;;;;5030912;28;20057;-65
2022/08/01 05:17:20;;;;;;;3.33;2.22;;;17.50;99.90;;;;;;5012788;28;20116;-64
2022/08/01 05:19:46;;;;;;;6.07;2.83;;;17.50;99.90;;;;;;5012718;28;20148;-64
2022/08/01 05:22:11;;;;;;;2.67;2.00;;;17.50;99.90;;;;;;5030526;28;20017;-63
2022/08/01 05:24:39;;;;;;;2.63;2.20;;;17.50;99.90;;;;;;5030712;28;20032;-64
2022/08/01 05:27:07;;;;;;;3.58;2.60;;;17.50;99.90;;;;;;5030888;28;20053;-63
2022/08/01 05:29:33;;;;;;;3.17;2.50;;;17.50;99.90;;;;;;5031175;28;20404;-64
2022/08/01 05:31:59;;;;;;;6.07;2.92;;;17.60;99.90;;;;;;5029412;28;20029;-64
2022/08/01 05:34:26;;;;;;;2.30;2.10;;;17.50;99.90;;;;;;5013215;28;20423;-64
2022/08/01 05:36:51;;;;;;;5.88;2.22;;;17.50;99.90;;;;;;5030468;28;20033;-63
2022/08/01 05:39:17;;;;;;;4.32;2.90;;;17.60;99.90;;;;;;5029480;28;20086;-64
2022/08/01 05:41:42;;;;;;;4.45;2.67;;;17.60;99.90;;;;;;5028157;28;20024;-65
2022/08/01 05:44:08;;;;;;;3.60;2.75;;;17.60;99.90;;;;;;5013088;28;20123;-64
2022/08/01 05:46:35;;;;;;;6.10;2.97;;;17.60;99.90;;;;;;5030372;28;20467;-65
2022/08/01 05:49:02;;;;;;;5.32;2.70;;;17.60;99.90;;;;;;5029836;28;20188;-65
2022/08/01 05:51:28;;;;;;;6.70;3.03;;;17.60;99.90;;;;;;5030025;28;20546;-63
2022/08/01 05:53:54;;;;;;;6.32;2.90;;;17.60;99.90;;;;;;5029167;28;20025;-65
2022/08/01 05:56:21;;;;;;;5.47;2.58;;;17.60;99.90;;;;;;5008340;28;20514;-65
2022/08/01 05:58:47;;;;;;;7.80;3.33;;;17.60;99.90;;;;;;5029952;28;20088;-64
2022/08/01 06:01:13;;;;;;;7.47;3.28;;;17.60;99.90;;;;;;5028875;28;20599;-65
2022/08/01 06:03:39;;;;;;;11.77;3.60;;;17.60;99.90;;;;;;5030036;28;20053;-65
2022/08/01 06:06:05;;;;;;;7.65;2.95;;;17.70;99.90;;;;;;5012165;28;20060;-63
2022/08/01 06:08:31;;;;;;;6.50;2.65;;;17.60;99.90;;;;;;5012214;28;20037;-65
2022/08/01 06:10:56;;;;;;;3.58;2.75;;;17.50;99.90;;;;;;5012427;28;20033;-65
2022/08/01 06:13:22;;;;;;;6.65;2.47;;;17.50;99.90;;;;;;5011125;28;20080;-65
2022/08/01 06:15:48;;;;;;;7.88;3.28;;;17.50;99.90;;;;;;5029733;28;20407;-65
2022/08/01 06:18:14;;;;;;;7.32;2.75;;;17.50;99.90;;;;;;5022245;28;20029;-66
2022/08/01 06:20:40;;;;;;;4.05;2.35;;;17.60;99.90;;;;;;5029484;28;20032;-65
2022/08/01 06:23:06;;;;;;;5.78;3.20;;;17.60;99.90;;;;;;5011324;28;20014;-65
2022/08/01 06:25:31;;;;;;;6.88;2.58;;;17.70;99.90;;;;;;5029700;28;20049;-64
2022/08/01 06:27:57;;;;;;;4.30;2.72;;;17.80;99.90;;;;;;5011761;28;20025;-64
2022/08/01 06:30:23;;;;;;;6.53;2.63;;;17.80;99.90;;;;;;5030002;28;20052;-66
2022/08/01 06:32:48;;;;;;;4.07;2.25;;;17.80;99.90;;;;;;5010306;28;20377;-65
2022/08/01 06:35:17;;;;;;;6.13;2.75;;;17.80;99.90;;;;;;5023834;28;20022;-66
2022/08/01 06:37:44;;;;;;;7.20;3.00;;;17.90;99.90;;;;;;5010911;28;20638;-66
2022/08/01 06:40:11;;;;;;;6.88;2.25;;;17.90;99.90;;;;;;5011030;28;20032;-65
2022/08/01 06:42:37;;;;;;;5.20;2.63;;;17.90;99.90;;;;;;5008376;28;20053;-65
2022/08/01 06:45:05;;;;;;;5.75;3.05;;;17.90;99.90;;;;;;5029058;28;20437;-66
2022/08/01 06:47:30;;;;;;;8.35;3.55;;;17.90;99.90;;;;;;5029303;28;20028;-65
2022/08/01 06:49:56;;;;;;;9.73;2.78;;;17.90;99.90;;;;;;5029604;28;20029;-65
2022/08/01 06:52:22;;;;;;;7.15;3.15;;;17.90;99.90;;;;;;5028640;28;20018;-65
2022/08/01 06:54:47;;;;;;;8.05;3.60;;;17.90;99.90;;;;;;5029334;28;20028;-65
2022/08/01 06:57:13;;;;;;;11.43;3.38;;;17.90;99.90;;;;;;5011276;28;20573;-65
2022/08/01 06:59:39;;;;;;;8.90;4.00;;;17.90;99.90;;;;;;5010997;28;20468;-66
2022/08/01 07:02:04;;;;;;;9.95;4.35;;;17.90;99.90;;;;;;5009371;28;20108;-65
2022/08/01 07:04:30;;;;;;;10.70;4.78;;;17.90;99.90;;;;;;5029288;28;20026;-65
2022/08/01 07:06:57;;;;;;;10.18;5.28;;;17.80;99.90;;;;;;5011051;28;20038;-64
2022/08/01 07:09:22;;;;;;;12.02;5.50;;;17.80;99.90;;;;;;5029325;28;20021;-65
2022/08/01 07:11:48;;;;;;;8.55;4.38;;;17.80;99.90;;;;;;5010182;28;20690;-65
2022/08/01 07:14:13;;;;;;;9.27;4.35;;;17.80;99.90;;;;;;5028565;28;20017;-66
2022/08/01 07:16:39;;;;;;;7.65;3.58;;;17.80;99.90;;;;;;5028166;28;20029;-65
2022/08/01 07:19:04;;;;;;;11.07;3.58;;;17.80;99.90;;;;;;5028465;28;20036;-65
2022/08/01 07:21:30;;;;;;;10.32;4.88;;;17.80;99.90;;;;;;5010431;28;20021;-65
2022/08/01 07:23:55;;;;;;;9.35;3.72;;;17.80;99.90;;;;;;5028502;28;20439;-64
2022/08/01 07:26:21;;;;;;;10.10;4.53;;;17.80;99.90;;;;;;5028776;28;20034;-64
2022/08/01 07:28:47;;;;;;;11.68;3.20;;;17.80;99.90;;;;;;5010797;28;20424;-65
2022/08/01 07:31:12;;;;;;;10.02;4.40;;;17.70;99.90;;;;;;5006346;28;20480;-65
2022/08/01 07:33:38;;;;;;;8.52;3.90;;;17.70;99.90;;;;;;5011413;28;20033;-65
2022/08/01 07:36:04;;;;;;;8.65;3.00;;;17.70;99.90;;;;;;5010603;28;20025;-66
2022/08/01 07:38:29;;;;;;;4.82;2.80;;;17.70;99.90;;;;;;5028375;28;20084;-65
2022/08/01 07:40:55;;;;;;;9.93;2.85;;;17.60;99.90;;;;;;5025098;28;20032;-65
2022/08/01 07:43:20;;;;;;;8.32;2.90;;;17.60;99.90;;;;;;5023376;28;20053;-65
2022/08/01 07:45:46;;;;;;;8.98;3.47;;;17.70;99.90;;;;;;5006900;28;20021;-64
2022/08/01 07:48:12;;;;;;;9.75;2.88;;;17.70;99.90;;;;;;5011014;28;20075;-64
2022/08/01 07:50:37;;;;;;;5.15;2.15;;;17.70;99.90;;;;;;5028324;28;20459;-65
2022/08/01 07:53:04;;;;;;;6.32;2.45;;;17.70;99.90;;;;;;5026963;28;20026;-64
2022/08/01 07:55:29;;;;;;;7.72;2.85;;;17.80;99.90;;;;;;5028169;28;20117;-64
2022/08/01 07:57:55;;;;;;;9.20;2.95;;;17.80;99.90;;;;;;5028163;28;20104;-64
2022/08/01 08:00:20;;;;;;;6.93;2.58;;;17.80;99.90;;;;;;5026809;28;20479;-65
2022/08/01 08:02:46;;;;;;;7.30;2.83;;;17.80;99.90;;;;;;5033691;28;20072;-64
2022/08/01 08:05:12;;;;;;;13.27;3.25;;;17.80;99.90;;;;;;5016188;28;20116;-66
2022/08/01 08:07:38;;;;;;;8.52;3.70;;;17.80;99.90;;;;;;5017086;28;20612;-64
2022/08/01 08:10:05;;;;;;;10.50;3.30;;;17.70;99.90;;;;;;5034869;28;20177;-64
2022/08/01 08:12:31;;;;;;;8.25;2.75;;;17.70;99.90;;;;;;5034571;28;20040;-64
2022/08/01 08:15:00;;;;;;;8.05;3.83;;;17.60;99.90;;;;;;5034787;28;20029;-64
2022/08/01 08:17:27;;;;;;;8.65;3.53;;;17.60;99.90;;;;;;5016789;28;20034;-64
2022/08/01 08:19:52;;;;;;;8.90;4.03;;;17.60;99.90;;;;;;5017032;28;20020;-64
2022/08/01 08:22:18;;;;;;;10.80;3.90;;;17.50;99.90;;;;;;5033618;28;20021;-64
2022/08/01 08:24:44;;;;;;;11.77;4.88;;;17.50;99.90;;;;;;5030816;28;20036;-64
2022/08/01 08:27:10;;;;;;;6.70;4.13;;;17.40;99.90;;;;;;5034193;28;20021;-62
2022/08/01 08:29:36;;;;;;;9.30;4.32;;;17.30;99.90;;;;;;5015600;28;20021;-64
2022/08/01 08:32:01;;;;;;;8.27;3.92;;;17.30;99.90;;;;;;5015779;28;20480;-64
2022/08/01 08:34:28;;;;;;;6.85;3.40;;;17.40;99.90;;;;;;5034359;28;20025;-62
2022/08/01 08:36:55;;;;;;;6.40;3.60;;;17.40;99.90;;;;;;5033995;28;20021;-64
2022/08/01 08:39:22;;;;;;;6.30;3.50;;;17.40;99.90;;;;;;5034907;28;20511;-62
2022/08/01 08:41:47;;;;;;;6.30;3.83;;;17.80;99.90;;;;;;5014581;28;20037;-63
2022/08/01 08:44:13;;;;;;;5.55;2.85;;;18.00;99.90;;;;;;5033798;28;20463;-64
2022/08/01 08:46:50;;;;;;;7.07;3.30;;;18.30;99.90;;;;;;5034620;28;20633;-64
2022/08/01 08:49:22;;;;;;;7.80;3.35;;;18.40;99.90;;;;;;5028024;28;20029;-63
2022/08/01 08:51:49;;;;;;;8.25;2.42;;;18.80;99.90;;;;;;5033748;28;20074;-63
2022/08/01 08:54:17;;;;;;;7.43;2.47;;;19.00;99.90;;;;;;5026914;28;20096;-64
2022/08/01 08:56:45;;;;;;;9.13;3.72;;;19.10;99.90;;;;;;5034339;28;20033;-62
2022/08/01 08:59:13;;;;;;;9.27;3.40;;;19.40;99.90;;;;;;5034373;28;20017;-64
2022/08/01 09:01:39;;;;;;;9.93;3.05;;;19.60;99.90;;;;;;5016254;28;20472;-64
2022/08/01 09:04:05;;;;;;;9.13;2.92;;;19.70;99.90;;;;;;5033937;28;20036;-64
2022/08/01 09:06:32;;;;;;;10.07;3.42;;;19.90;99.90;;;;;;5034477;28;20075;-64
2022/08/01 09:08:59;;;;;;;6.43;2.17;;;19.90;99.90;;;;;;5034472;28;20025;-64
2022/08/01 09:11:25;;;;;;;10.25;2.67;;;19.60;99.90;;;;;;5033859;28;20509;-63
2022/08/01 09:14:13;;;;;;;6.97;2.53;;;19.60;99.90;;;;;;5030560;28;20079;-64
2022/08/01 09:16:44;;;;;;;8.98;2.08;;;19.60;99.90;;;;;;5013287;28;20171;-65
2022/08/01 09:19:15;;;;;;;5.30;1.98;;;19.80;99.90;;;;;;5013461;28;20028;-62
2022/08/01 09:21:56;;;;;;;4.53;2.33;;;19.90;99.90;;;;;;5029878;28;20037;-63
2022/08/01 09:24:22;;;;;;;7.50;2.45;;;19.90;99.90;;;;;;5029421;28;20365;-64
2022/08/01 09:26:49;;;;;;;8.73;3.00;;;20.10;99.90;;;;;;5031000;28;20044;-63
2022/08/01 09:29:21;;;;;;;7.90;2.38;;;20.20;99.90;;;;;;5027165;28;20032;-63
2022/08/01 09:31:47;;;;;;;7.55;2.63;;;20.30;99.90;;;;;;5012127;28;20071;-63
2022/08/01 09:34:13;;;;;;;6.70;2.40;;;20.40;99.90;;;;;;5030481;28;20519;-63
2022/08/01 09:36:55;;;;;;;6.82;3.05;;;20.50;99.90;;;;;;5012792;28;20025;-63
2022/08/01 09:39:24;;;;;;;7.57;2.08;;;20.50;99.90;;;;;;5008317;28;20020;-63
2022/08/01 09:41:50;;;;;;;3.85;2.00;;;20.70;99.90;;;;;;5011380;28;20040;-63
2022/08/01 09:44:17;;;;;;;9.02;1.85;;;20.60;99.90;;;;;;5030833;28;20364;-63
2022/08/01 09:46:49;;;;;;;6.75;2.30;;;20.60;99.90;;;;;;5011823;28;20174;-64
2022/08/01 09:49:14;;;;;;;8.45;2.53;;;20.70;99.90;;;;;;5023971;28;20033;-63
2022/08/01 09:51:40;;;;;;;7.18;2.70;;;20.60;99.90;;;;;;5029770;28;20179;-63
2022/08/01 09:54:06;;;;;;;9.63;2.65;;;20.60;99.90;;;;;;5030550;28;20031;-64
2022/08/01 09:56:42;;;;;;;6.70;2.13;;;20.60;99.90;;;;;;5030160;28;20373;-63
2022/08/01 09:59:08;;;;;;;10.07;2.95;;;20.60;99.90;;;;;;5028963;28;20041;-63
2022/08/01 10:01:48;;;;;;;11.15;2.30;;;20.50;99.90;;;;;;5011831;28;20033;-63
2022/08/01 10:04:19;;;;;;;6.72;2.00;;;20.60;99.90;;;;;;5021223;28;20609;-64
2022/08/01 10:06:52;;;;;;;8.27;2.33;;;20.60;99.90;;;;;;5030212;28;20025;-64
2022/08/01 10:09:28;;;;;;;5.90;1.67;;;20.70;99.90;;;;;;5022906;28;20018;-63
2022/08/01 10:11:55;;;;;;;6.78;1.55;;;20.70;99.90;;;;;;5026891;28;20029;-63
2022/08/01 10:14:24;;;;;;;12.98;2.58;;;20.80;99.90;;;;;;5029866;28;20067;-62
2022/08/01 10:16:50;;;;;;;10.02;1.50;;;20.80;99.90;;;;;;5029911;28;20032;-63
2022/08/01 10:19:17;;;;;;;4.80;1.65;;;20.70;99.90;;;;;;5029432;28;20037;-61
2022/08/01 10:21:49;;;;;;;4.53;1.75;;;20.80;99.90;;;;;;5029281;28;20113;-63
2022/08/01 10:24:16;;;;;;;11.63;2.08;;;20.80;99.90;;;;;;5026845;28;20009;-63
2022/08/01 10:26:44;;;;;;;8.13;2.28;;;20.90;99.90;;;;;;5011939;28;20136;-64
2022/08/01 10:29:10;;;;;;;7.78;2.30;;;20.80;99.90;;;;;;5028779;28;20038;-63
2022/08/01 10:31:37;;;;;;;5.20;2.15;;;20.80;99.90;;;;;;5029408;28;20464;-62
2022/08/01 10:34:04;;;;;;;7.28;2.30;;;20.90;99.90;;;;;;5029270;28;20041;-62
2022/08/01 10:36:31;;;;;;;8.40;2.13;;;20.90;99.90;;;;;;5029444;28;20029;-63
2022/08/01 10:38:57;;;;;;;6.90;1.50;;;20.90;99.90;;;;;;5027603;28;20052;-63
2022/08/01 10:41:24;;;;;;;5.75;2.15;;;21.00;99.90;;;;;;5028417;28;20708;-63
2022/08/01 10:43:51;;;;;;;7.78;2.03;;;20.90;99.90;;;;;;5011921;28;20121;-62
2022/08/01 10:46:19;;;;;;;5.93;2.03;;;20.90;99.90;;;;;;5012172;28;20018;-62
2022/08/01 10:49:22;;;;;;;8.52;1.90;;;21.00;99.90;;;;;;5029187;28;20411;-63
2022/08/01 10:51:48;;;;;;;3.50;1.80;;;21.00;99.90;;;;;;4929271;29;20027;-62
2022/08/01 10:54:14;;;;;;;6.60;1.90;;;21.00;99.90;;;;;;5008127;28;20460;-62
2022/08/01 10:56:44;;;;;;;7.45;1.67;;;21.10;99.90;;;;;;5010645;28;20571;-62
2022/08/01 10:59:09;;;;;;;8.45;1.80;;;21.10;99.90;;;;;;5029494;28;20662;-62
2022/08/01 11:01:35;;;;;;;9.13;2.00;;;21.20;99.90;;;;;;5028535;28;20096;-63
2022/08/01 11:04:00;;;;;;;8.57;1.75;;;21.20;99.90;;;;;;5028928;28;20035;-64
2022/08/01 11:06:40;;;;;;;8.57;1.83;;;21.20;99.90;;;;;;5011410;28;20035;-61
2022/08/01 11:09:37;;;;;;;2.63;1.40;;;21.10;99.90;;;;;;5011210;28;20025;-62
2022/08/01 11:12:06;;;;;;;5.55;1.98;;;21.10;99.90;;;;;;5026991;28;20029;-63
2022/08/01 11:14:34;;;;;;;3.03;1.33;;;21.20;99.90;;;;;;5028910;28;20034;-62
2022/08/01 11:17:37;;;;;;;4.78;2.13;;;21.10;99.90;;;;;;5029100;28;20155;-62
2022/08/01 11:20:12;;;;;;;7.45;1.63;;;21.10;99.90;;;;;;5027340;28;20028;-61
2022/08/01 11:23:06;;;;;;;5.70;1.50;;;21.10;99.90;;;;;;5028193;28;20029;-65
2022/08/01 11:25:37;;;;;;;4.13;1.48;;;21.10;99.90;;;;;;5022931;28;20080;-64
2022/08/01 11:28:24;;;;;;;4.35;1.88;;;21.20;99.90;;;;;;5026727;28;20028;-64
2022/08/01 11:30:51;;;;;;;6.93;1.88;;;21.20;99.90;;;;;;5027876;28;20041;-64
2022/08/01 11:33:19;;;;;;;6.97;1.95;;;21.30;99.90;;;;;;5027832;28;20060;-63
2022/08/01 11:36:17;;;;;;;4.50;1.63;;;21.30;99.90;;;;;;5028222;28;20061;-63
2022/08/01 11:38:44;;;;;;;7.43;2.22;;;21.20;99.90;;;;;;4952312;28;20052;-64
2022/08/01 11:41:13;;;;;;;4.18;1.10;;;21.30;99.90;;;;;;5026132;28;20026;-64
2022/08/01 11:43:56;;;;;;;4.18;1.15;;;21.30;99.90;;;;;;5027338;28;20022;-64
2022/08/01 11:46:47;;;;;;;4.32;1.23;;;21.30;99.90;;;;;;5008810;28;20575;-63
2022/08/01 11:49:32;;;;;;;4.32;1.30;;;21.30;99.90;;;;;;5028079;28;20409;-63
2022/08/01 11:52:15;;;;;;;4.72;1.48;;;21.30;99.90;;;;;;5025035;28;20034;-63
2022/08/01 11:54:43;;;;;;;5.57;1.40;;;21.40;99.90;;;;;;5028996;28;20029;-63
2022/08/01 11:57:22;;;;;;;6.63;1.30;;;21.40;99.90;;;;;;5026496;28;20038;-64
2022/08/01 11:59:56;;;;;;;6.03;1.27;;;21.50;99.90;;;;;;5027467;28;20341;-62
2022/08/01 12:02:27;;;;;;;1.90;1.10;;;21.50;99.90;;;;;;5020104;28;20177;-63
2022/08/01 12:04:54;;;;;;;5.50;1.40;;;21.50;99.90;;;;;;5010076;28;20541;-63
2022/08/01 12:07:20;;;;;;;3.75;1.23;;;21.50;99.90;;;;;;5028516;28;20071;-61
2022/08/01 12:09:47;;;;;;;6.00;1.48;;;21.50;99.90;;;;;;5010925;28;20021;-62
2022/08/01 12:12:17;;;;;;;4.30;1.67;;;21.50;99.90;;;;;;5026501;28;20014;-64
2022/08/01 12:14:44;;;;;;;6.65;1.73;;;21.60;99.90;;;;;;5028781;28;20017;-64
2022/08/01 12:17:10;;;;;;;4.35;1.98;;;21.60;99.90;;;;;;5028031;28;20108;-62
2022/08/01 12:19:36;;;;;;;6.18;1.30;;;21.60;99.90;;;;;;5010166;28;20544;-63
2022/08/01 12:22:11;;;;;;;3.92;1.88;;;21.60;99.90;;;;;;5009885;28;20036;-62
2022/08/01 12:24:38;;;;;;;4.47;1.13;;;21.60;99.90;;;;;;5023361;28;20017;-62
2022/08/01 12:27:05;;;;;;;3.85;1.48;;;21.70;99.90;;;;;;5027816;28;20025;-63
2022/08/01 12:29:32;;;;;;;6.45;1.60;;;21.80;99.90;;;;;;5028259;28;20136;-60
2022/08/01 12:31:57;;;;;;;6.95;1.75;;;21.90;99.90;;;;;;5026413;28;20025;-62
2022/08/01 12:34:27;;;;;;;3.58;1.23;;;21.90;99.90;;;;;;5027811;28;20028;-61
2022/08/01 12:36:57;;;;;;;4.80;1.75;;;21.90;99.90;;;;;;5025578;28;20097;-63
2022/08/01 12:39:29;;;;;;;4.47;1.38;;;22.00;99.90;;;;;;5010116;28;20022;-60
2022/08/01 12:41:55;;;;;;;6.45;1.50;;;22.00;99.70;;;;;;5008086;28;20018;-61
2022/08/01 12:44:20;;;;;;;5.10;2.03;;;22.00;99.90;;;;;;5027827;28;20480;-60
2022/08/01 12:46:46;;;;;;;5.13;1.50;;;22.10;99.90;;;;;;5028059;28;20057;-61
2022/08/01 12:49:12;;;;;;;6.47;1.85;;;22.10;99.20;;;;;;5013431;28;20025;-61